LXGBGMMX

Guest
Details From LXGB - LXGB Gibraltar
To GMMX - MENARA
Flight Number -
Tags generated
Created
Modified
Stats Distance 306 nm / 567 km
Max Altitude 34,400 ft / 10,485 m
Waypoints 6
Social Downloads 1
Likes 0
Share VATSIM

Download

Looking for another format? Having issues loading an existing format? Contact us
Advertisement - Login to hide

Notes

Basic altitude profile: - Ascent Rate: 2500ft/min - Ascent Speed: 250kts - Cruise Altitude: 35000ft - Cruise Speed: 420kts - Descent Rate: 1500ft/min - Descent Speed: 250kts

Route

LXGB BARIS UB11 PELIN GMMX

ID Type Via Altitude Latitude Longitude Leg Dist Tot Dist Heading (true) Name
O LXGB APT - 0 ft / 0 m 36.15121˚ -5.34966˚ - 0 nm - LXGB Gibraltar
BARIS FIX - 28,600 ft / 8,717 m 34.90306˚ -5.93056˚ 80 nm 80 nm 201° / 201° -
TUSOR FIX UB11 (AWY-HI) 34,000 ft / 10,363 m 34.49722˚ -6.33167˚ 31 nm 111 nm 219° / 219° -
RBT VOR UB11 (AWY-HI) 34,400 ft / 10,485 m 34.05000˚ -6.74639˚ 33 nm 145 nm 218° / 217° RABAT VOR-DME
PELIN FIX UB11 (AWY-HI) 24,500 ft / 7,468 m 32.89417˚ -7.39667˚ 76 nm 222 nm 205° / 205° -
O GMMX APT - 0 ft / 0 m 31.60692˚ -8.03627˚ 83 nm 305 nm 203° / 203° MENARA

Altitude Profile

Advertisement - Login to hide

Weather


0- 5 10 15 20 25 30 35+ Temperature / ° C

Clouds and Precipitation
Forecast for 2017-12-11 18:00 UTC. Updated 30 minutes ago

Ground ~20,000 ft ~40,000 ft Winds

LXGB

Details ICAO LXGB (GIB)
Name Gibraltar
Region Gibralter
Timezone Europe/Gibraltar (UTC+1.0)
Stats Elevation 15 ft / 5 m (AMSL)
Location 36.151209° -5.349664°
Runways 1
Magnetic Variation 1.124° W

METAR

LXGB 111250Z 27011KT 9999 FEW022 BKN150 12/10 Q1005 NOSIG

Decode

TAF

Not found

Departure Runways

ID Width Length Bearing (true) Bearing (mag) Surface Threshold Offset Overrun Length
27 151 ft / 46 m 5,992 ft / 1,826 m 267.56° 268.68° Asphalt 367 ft / 112 m 89 ft / 27 m
9 151 ft / 46 m 5,992 ft / 1,826 m 87.54° 88.66° Asphalt 299 ft / 91 m 52 ft / 16 m

GMMX

Details ICAO GMMX (RAK)
Name MENARA
Region Morocco
Timezone Africa/Casablanca (UTC+0.0)
Stats Elevation 1,545 ft / 471 m (AMSL)
Location 31.606920° -8.036265°
Runways 1
Magnetic Variation 2.000° W

METAR

GMMX 111330Z 26013KT 7000 SCT023 BKN080 17/05 Q1008 TEMPO 3000 DU

Decode

TAF

TAF TAF GMMX 110500Z 1106/1212 24005KT 8000 NSC BECMG 1113/1115 SCT020 FEW026TCU BKN080 TEMPO 1115/1122 32016G26KT 4000 SHRA SCT010 BKN016 FEW030CB

Decode

Destination Runways

ID Width Length Bearing (true) Bearing (mag) Surface Threshold Offset Overrun Length
10 148 ft / 45 m 10,169 ft / 3,100 m 95.99° 97.99° Asphalt 918 ft / 280 m 0 ft / 0 m
28 148 ft / 45 m 10,169 ft / 3,100 m 276.00° 278.00° Asphalt 0 ft / 0 m 0 ft / 0 m

Approach Navaids

Runway Type Ident Frequency Range Bearing (true) Bearing (mag) Slope Elevation
10 Localiser MAR 109.70 MHz 18 nm / 33 km 96.03° 98.03° - 1,545 ft / 471 m (AMSL)
10 Glidescope MAR 109.70 MHz 10 nm / 19 km 96.00° 98.00° 3.00° 1,558 ft / 475 m (AMSL)

Popular Alternatives